Terminal Aerodrome Forecast
Issued by NWS

Home | Current Version | Previous Version | Text Only | Print | Product List | Glossary On
Versions: 1 2 3 4 5 6 7 8 9 10 11 12 13 14 15 16 17 18 19 20
000
FTAK31 PANC 251141
TAFAHO
TAF
PAHO 251141Z 2512/2612 VRB05KT P6SM FEW040 SCT080
     FM251500 23008KT P6SM -SHRA SCT025 BKN040
     FM260000 24012KT P6SM VCSH SCT030 BKN050
     FM260500 23006KT P6SM FEW080 SCT150=

USA.gov is the U.S. government's official web portal to all federal, state and local government web resources and services.